Edgewater, Wisconsin
Current Conditions -  °F | °C
As of 6:53 AM on Thursday 23 Oct 2014 (Local Time) from KHYR Reporting Station
Light Rain Light Rain  
Wind Chill: 44°   Ceiling: 1900
Heat Index: 47°   Visibility: 5mi
Dew Point: 44°   Wind: 7mph
Humidity: 90%   Direction: 170°S
Pressure: 30.01"   Gusts: NA
Location:  45.74°N, 91.48°W
Report Text: KHYR 231153Z AUTO 17006KT 5SM -RA BR OVC019 08/07 A3001 RMK AO2 SLP168 P0002 60008 70008 T00830067 10100 20083 56006
Loading
Personal Weather Stations






























Interactive Weather Map
Tropical Storm Tracking
New forecast layout! Learn more

10-Day Weather Forecast

Advertisements
Track Severe Weather on mobile